createdAt,value
2018-09-21T00:04:43.338Z,100819.35
2018-09-21T00:09:46.550Z,100824.70
2018-09-21T00:14:49.782Z,100819.69
2018-09-21T00:19:53.136Z,100806.97
2018-09-21T00:24:56.412Z,100802.53
2018-09-21T00:29:59.970Z,100798.26
2018-09-21T00:35:03.217Z,100794.82
2018-09-21T00:40:06.439Z,100789.33
2018-09-21T00:45:09.740Z,100788.53
2018-09-21T00:50:12.908Z,100787.28
2018-09-21T00:55:16.112Z,100774.06
2018-09-21T01:00:19.355Z,100772.92
2018-09-21T01:05:22.846Z,100767.80
2018-09-21T01:10:26.042Z,100765.38
2018-09-21T01:15:29.323Z,100756.73
2018-09-21T01:20:32.987Z,100758.16
2018-09-21T01:25:36.869Z,100753.11
2018-09-21T01:30:41.541Z,100753.13
2018-09-21T01:35:49.888Z,100746.11
2018-09-21T01:40:53.380Z,100741.78
2018-09-21T01:45:56.590Z,100740.53
2018-09-21T01:50:59.745Z,100746.83
2018-09-21T01:56:02.984Z,100748.01
2018-09-21T02:01:06.335Z,100733.14
2018-09-21T02:06:09.496Z,100727.88
2018-09-21T02:11:12.701Z,100714.67
2018-09-21T02:16:16.479Z,100702.41
2018-09-21T02:21:19.732Z,100709.14
2018-09-21T02:26:23.158Z,100699.34
2018-09-21T02:31:26.387Z,100695.11
2018-09-21T02:36:29.560Z,100700.05
2018-09-21T02:41:33.637Z,100696.78
2018-09-21T02:46:36.747Z,100693.38
2018-09-21T02:51:39.930Z,100681.09
2018-09-21T02:56:43.466Z,100672.05
2018-09-21T03:01:46.794Z,100655.47
2018-09-21T03:06:50.177Z,100653.86
2018-09-21T03:11:53.498Z,100656.66
2018-09-21T03:16:56.772Z,100650.86
2018-09-21T03:22:00.051Z,100637.53
2018-09-21T03:27:03.270Z,100643.70
2018-09-21T03:32:07.730Z,100642.12
2018-09-21T03:37:10.937Z,100636.75
2018-09-21T03:42:14.105Z,100629.69
2018-09-21T03:47:17.254Z,100623.17
2018-09-21T03:52:20.541Z,100619.48
2018-09-21T03:57:23.891Z,100613.30
2018-09-21T04:02:27.125Z,100607.39
2018-09-21T04:07:30.346Z,100602.28
2018-09-21T04:12:35.702Z,100602.80
2018-09-21T04:17:39.120Z,100590.88
2018-09-21T04:22:46.343Z,100589.27
2018-09-21T04:27:50.507Z,100569.28
2018-09-21T04:32:53.692Z,100574.58
2018-09-21T04:37:58.761Z,100562.01
2018-09-21T04:43:02.118Z,100549.21
2018-09-21T04:48:05.647Z,100555.47
2018-09-21T04:53:08.895Z,100550.02
2018-09-21T04:58:14.856Z,100546.47
2018-09-21T05:03:18.900Z,100546.08
2018-09-21T05:08:22.127Z,100536.25
2018-09-21T05:13:25.335Z,100534.25
2018-09-21T05:18:28.590Z,100530.97
2018-09-21T05:23:31.849Z,100531.84
2018-09-21T05:28:34.999Z,100520.83
2018-09-21T05:33:38.213Z,100524.34
2018-09-21T05:38:41.406Z,100515.23
2018-09-21T05:43:44.521Z,100510.70
2018-09-21T05:48:47.786Z,100509.30
2018-09-21T05:53:51.867Z,100502.66
2018-09-21T05:58:55.299Z,100499.30
2018-09-21T06:03:58.522Z,100496.90
2018-09-21T06:09:01.864Z,100502.16
2018-09-21T06:14:05.506Z,100496.71
2018-09-21T06:19:08.613Z,100483.73
2018-09-21T06:24:11.940Z,100471.38
2018-09-21T06:29:15.119Z,100472.06
2018-09-21T06:34:18.405Z,100477.63
2018-09-21T06:39:22.251Z,100479.22
2018-09-21T06:44:25.919Z,100476.41
2018-09-21T06:49:30.128Z,100480.29
2018-09-21T06:54:33.336Z,100472.89
2018-09-21T06:59:36.752Z,100460.56
2018-09-21T07:04:40.174Z,100449.94
2018-09-21T07:09:43.381Z,100445.25
2018-09-21T07:14:46.782Z,100434.52
2018-09-21T07:19:50.099Z,100427.63
2018-09-21T07:24:54.415Z,100415.39
2018-09-21T07:29:57.726Z,100417.50
2018-09-21T07:35:00.945Z,100419.86
2018-09-21T07:40:05.157Z,100410.33
2018-09-21T07:45:09.683Z,100411.25
2018-09-21T07:50:13.069Z,100413.64
2018-09-21T07:55:16.265Z,100404.05
2018-09-21T08:00:19.457Z,100391.80
2018-09-21T08:05:22.727Z,100383.41
2018-09-21T08:10:25.888Z,100379.46
2018-09-21T08:15:29.227Z,100366.94
2018-09-21T08:20:32.382Z,100353.03
2018-09-21T08:25:35.696Z,100358.23
2018-09-21T08:30:39.809Z,100350.59
2018-09-21T08:35:43.152Z,100349.59
2018-09-21T08:40:46.408Z,100344.98
2018-09-21T08:45:49.753Z,100337.06
2018-09-21T08:50:52.944Z,100326.10
2018-09-21T08:55:56.238Z,100314.55
2018-09-21T09:00:59.431Z,100309.56
2018-09-21T09:06:02.571Z,100307.80
2018-09-21T09:11:05.997Z,100301.45
2018-09-21T09:16:10.498Z,100294.09
2018-09-21T09:21:13.917Z,100276.96
2018-09-21T09:26:17.085Z,100269.42
2018-09-21T09:31:20.263Z,100259.12
2018-09-21T09:36:23.448Z,100247.70
2018-09-21T09:41:26.646Z,100239.02
2018-09-21T09:46:29.838Z,100221.73
2018-09-21T09:51:33.061Z,100212.84
2018-09-21T09:56:36.526Z,100204.48
2018-09-21T10:01:40.398Z,100200.65
2018-09-21T10:06:43.833Z,100186.17
2018-09-21T10:11:47.623Z,100186.08
2018-09-21T10:16:50.845Z,100173.14
2018-09-21T10:21:54.100Z,100159.64
2018-09-21T10:26:57.723Z,100154.77
2018-09-21T10:32:00.875Z,100138.43
2018-09-21T10:37:04.189Z,100133.05
2018-09-21T10:42:07.752Z,100132.70
2018-09-21T10:47:11.104Z,100114.63
2018-09-21T10:52:14.316Z,100112.79
2018-09-21T10:57:17.877Z,100099.45
2018-09-21T11:02:21.079Z,100093.16
2018-09-21T11:07:24.495Z,100075.14
2018-09-21T11:12:27.770Z,100061.65
2018-09-21T11:17:30.886Z,100059.36
2018-09-21T11:22:34.067Z,100062.33
2018-09-21T11:27:37.320Z,100036.35
2018-09-21T11:32:40.515Z,100040.62
2018-09-21T11:37:46.683Z,100038.27
2018-09-21T11:42:49.904Z,100043.77
2018-09-21T11:47:53.315Z,100039.99
2018-09-21T11:52:56.484Z,100040.64
2018-09-21T11:57:59.648Z,100016.27
2018-09-21T12:03:03.809Z,100024.54
2018-09-21T12:08:07.024Z,99996.56
2018-09-21T12:13:10.299Z,99992.25
2018-09-21T12:18:13.501Z,100001.92
2018-09-21T12:23:16.660Z,99994.63
2018-09-21T12:28:19.849Z,99995.47
2018-09-21T12:33:23.120Z,99989.31
2018-09-21T12:38:26.415Z,99986.08
2018-09-21T12:43:35.102Z,99969.03
2018-09-21T12:48:38.904Z,99968.53
2018-09-21T12:53:42.208Z,99979.64
2018-09-21T12:58:45.461Z,99982.36
2018-09-21T13:03:48.633Z,99978.09
2018-09-21T13:08:51.838Z,99976.17
2018-09-21T13:13:55.074Z,99962.66
2018-09-21T13:18:58.208Z,99956.59
2018-09-21T13:24:02.233Z,99929.52
2018-09-21T13:29:05.522Z,99946.08
2018-09-21T13:34:08.973Z,99931.77
2018-09-21T13:39:12.194Z,99936.56
2018-09-21T13:44:15.340Z,99932.92
2018-09-21T13:49:18.769Z,99922.56
2018-09-21T13:54:21.923Z,99924.00
2018-09-21T13:59:25.177Z,99915.99
2018-09-21T14:04:29.028Z,99897.02
2018-09-21T14:09:32.259Z,99897.52
2018-09-21T14:20:04.908Z,99910.86
2018-09-21T14:25:08.349Z,99907.14
2018-09-21T14:30:12.105Z,99952.97
2018-09-21T14:35:17.782Z,100094.50
2018-09-21T14:40:22.032Z,100163.38
2018-09-21T14:45:25.333Z,100143.31
2018-09-21T14:50:28.959Z,100166.97
2018-09-21T14:55:32.372Z,100212.53
2018-09-21T15:00:35.945Z,100246.29
2018-09-21T15:05:40.170Z,100285.50
2018-09-21T15:10:43.410Z,100302.47
2018-09-21T15:15:48.590Z,100330.81
2018-09-21T15:20:53.893Z,100297.69
2018-09-21T15:25:57.305Z,100338.77
2018-09-21T15:31:01.005Z,100349.61
2018-09-21T15:36:04.450Z,100348.68
2018-09-21T15:41:09.215Z,100369.70
2018-09-21T15:46:12.627Z,100370.77
2018-09-21T15:51:15.849Z,100382.07
2018-09-21T15:56:19.091Z,100364.43
2018-09-21T16:01:22.818Z,100380.63
2018-09-21T16:06:29.837Z,100368.89
2018-09-21T16:11:33.281Z,100405.53
2018-09-21T16:16:36.672Z,100415.70
2018-09-21T16:21:42.140Z,100398.57
2018-09-21T16:26:45.420Z,100409.59
2018-09-21T16:31:48.749Z,100388.47
2018-09-21T16:36:52.018Z,100377.11
2018-09-21T16:41:55.541Z,100381.66
2018-09-21T16:46:58.997Z,100380.55
2018-09-21T16:52:02.299Z,100365.25
2018-09-21T16:57:06.183Z,100368.69
2018-09-21T17:02:09.958Z,100362.42
2018-09-21T17:07:13.397Z,100370.39
2018-09-21T17:12:16.787Z,100393.41
2018-09-21T17:17:20.007Z,100401.50
2018-09-21T17:22:23.234Z,100393.94
2018-09-21T17:27:26.516Z,100409.98
2018-09-21T17:32:29.676Z,100445.06
2018-09-21T17:37:34.353Z,100465.89
2018-09-21T17:42:38.166Z,100480.87
2018-09-21T17:47:41.332Z,100516.25
2018-09-21T17:52:50.036Z,100527.78
2018-09-21T17:57:56.292Z,100526.36
2018-09-21T18:03:00.819Z,100507.52
2018-09-21T18:08:04.271Z,100486.27
2018-09-21T18:18:41.093Z,100504.83
2018-09-21T18:23:45.326Z,100514.58
2018-09-21T18:28:49.630Z,100529.48
2018-09-21T18:33:52.911Z,100541.83
2018-09-21T18:38:56.064Z,100549.50
2018-09-21T18:43:59.505Z,100578.48
2018-09-21T18:49:02.820Z,100591.46
2018-09-21T18:54:06.890Z,100608.95
2018-09-21T18:59:10.605Z,100606.33
2018-09-21T19:04:15.529Z,100605.02
2018-09-21T19:09:19.542Z,100629.66
2018-09-21T19:14:23.714Z,100641.77
2018-09-21T19:19:28.563Z,100650.34
2018-09-21T19:24:32.653Z,100659.38
2018-09-21T19:30:05.465Z,100663.27
2018-09-21T19:35:17.254Z,100677.84
2018-09-21T19:40:21.260Z,100692.75
2018-09-21T19:45:25.946Z,100706.40
2018-09-21T19:50:30.190Z,100721.19
2018-09-21T19:55:34.454Z,100722.20
2018-09-21T20:00:40.127Z,100730.69
2018-09-21T20:05:43.468Z,100732.09
2018-09-21T20:11:20.530Z,100747.03
2018-09-21T20:16:23.883Z,100765.00
2018-09-21T20:21:27.192Z,100779.75
2018-09-21T20:26:31.215Z,100800.03
2018-09-21T20:31:34.739Z,100792.11
2018-09-21T20:36:40.890Z,100812.00
2018-09-21T20:41:44.115Z,100813.29
2018-09-21T20:46:47.375Z,100835.01
2018-09-21T20:51:50.597Z,100828.53
2018-09-21T20:56:53.754Z,100833.13
2018-09-21T21:01:56.921Z,100840.13
2018-09-21T21:07:00.136Z,100842.19
2018-09-21T21:12:03.344Z,100847.91
2018-09-21T21:17:06.524Z,100848.30
2018-09-21T21:22:09.706Z,100858.50
2018-09-21T21:27:14.802Z,100864.91
2018-09-21T21:32:20.697Z,100878.84
2018-09-21T21:37:26.310Z,100882.41
2018-09-21T21:42:33.350Z,100894.99
2018-09-21T21:47:39.576Z,100901.72
2018-09-21T21:52:43.700Z,100905.41
2018-09-21T21:57:46.854Z,100910.59
2018-09-21T22:02:50.204Z,100902.74
2018-09-21T22:07:53.443Z,100905.09
2018-09-21T22:12:56.588Z,100901.25
2018-09-21T22:17:59.775Z,100907.80
2018-09-21T22:23:03.132Z,100908.30
2018-09-21T22:28:06.322Z,100920.33
2018-09-21T22:33:09.518Z,100922.31
2018-09-21T22:38:12.781Z,100924.83
2018-09-21T22:43:16.177Z,100922.11
2018-09-21T22:48:19.397Z,100925.81
2018-09-21T22:53:22.769Z,100932.50
2018-09-21T22:58:25.918Z,100947.38
2018-09-21T23:03:29.121Z,100961.77
2018-09-21T23:08:32.314Z,100957.44
2018-09-21T23:13:35.614Z,100963.44
2018-09-21T23:18:40.391Z,100975.81
2018-09-21T23:23:44.287Z,100972.78
2018-09-21T23:28:47.463Z,100975.95
2018-09-21T23:33:50.721Z,100977.06
2018-09-21T23:38:53.930Z,100981.48
2018-09-21T23:43:57.141Z,100979.06
2018-09-21T23:49:00.294Z,100975.20
2018-09-21T23:54:04.065Z,100975.15
2018-09-21T23:59:07.244Z,100975.13
